Time;durP1;ratioP1;P1;durP2;ratioP2;P2;SDS_P1;SDS_P2;PMS_P1;PMS_P2;Temp;Humidity;BMP_temperature;BMP_pressure;BME280_temperature;BME280_humidity;BME280_pressure;Samples;Min_cycle;Max_cycle;Signal;HPM_P1;HPM_P2
2021/07/16 00:00:16;;;;;;;7.73;7.43;;;23.70;99.50;;;;;;3545076;40;20493;-63
2021/07/16 00:02:44;;;;;;;7.70;7.20;;;23.70;99.50;;;;;;3546357;40;20470;-63
2021/07/16 00:05:14;;;;;;;8.10;7.70;;;23.70;99.50;;;;;;3545706;40;21056;-63
2021/07/16 00:07:42;;;;;;;7.33;7.00;;;23.70;99.50;;;;;;3535080;40;20481;-63
2021/07/16 00:10:11;;;;;;;7.73;7.23;;;23.70;99.50;;;;;;3545302;40;20450;-63
2021/07/16 00:12:39;;;;;;;7.10;6.80;;;23.70;99.50;;;;;;3545433;40;20450;-63
2021/07/16 00:15:09;;;;;;;7.53;7.23;;;23.70;99.50;;;;;;3545224;40;20525;-63
2021/07/16 00:17:37;;;;;;;6.57;6.37;;;23.70;99.50;;;;;;3534113;40;20473;-63
2021/07/16 00:20:06;;;;;;;7.90;7.20;;;23.70;99.60;;;;;;3541068;40;20812;-63
2021/07/16 00:22:34;;;;;;;7.20;6.90;;;23.70;99.50;;;;;;3545181;40;20466;-63
2021/07/16 00:25:01;;;;;;;6.97;6.67;;;23.70;99.50;;;;;;3545012;40;20853;-63
2021/07/16 00:27:28;;;;;;;7.43;7.07;;;23.70;99.50;;;;;;3544856;40;20458;-63
2021/07/16 00:29:57;;;;;;;8.10;7.60;;;23.70;99.50;;;;;;3545433;40;20478;-63
2021/07/16 00:32:24;;;;;;;7.93;7.53;;;23.70;99.50;;;;;;3545497;40;20454;-63
2021/07/16 00:34:59;;;;;;;7.70;7.20;;;23.70;99.50;;;;;;3536115;40;20587;-63
2021/07/16 00:37:26;;;;;;;7.67;7.23;;;23.70;99.50;;;;;;3545395;40;20461;-63
2021/07/16 00:39:54;;;;;;;8.00;7.60;;;23.70;99.50;;;;;;3545646;40;20469;-63
2021/07/16 00:42:21;;;;;;;7.60;7.20;;;23.70;99.50;;;;;;3545303;40;20454;-62
2021/07/16 00:44:48;;;;;;;7.70;7.40;;;23.70;99.50;;;;;;3544681;40;20466;-63
2021/07/16 00:47:15;;;;;;;8.27;7.73;;;23.70;99.50;;;;;;3543478;40;20446;-63
2021/07/16 00:49:43;;;;;;;7.33;7.03;;;23.70;99.50;;;;;;3543505;40;20458;-63
2021/07/16 00:52:11;;;;;;;8.13;7.70;;;23.70;99.50;;;;;;3544288;40;20548;-63
2021/07/16 00:54:39;;;;;;;8.27;7.87;;;23.70;99.50;;;;;;3545394;40;20769;-63
2021/07/16 00:57:07;;;;;;;7.70;7.40;;;23.70;99.70;;;;;;3544927;40;20446;-63
2021/07/16 00:59:35;;;;;;;8.03;7.73;;;23.70;99.50;;;;;;3544922;40;21061;-63
2021/07/16 01:02:03;;;;;;;8.40;8.00;;;23.70;99.50;;;;;;3543761;40;20462;-63
2021/07/16 01:04:30;;;;;;;8.03;7.73;;;23.70;99.50;;;;;;3544164;40;20469;-63
2021/07/16 01:06:57;;;;;;;8.07;7.57;;;23.70;99.50;;;;;;3545354;40;20815;-63
2021/07/16 01:09:26;;;;;;;8.07;7.67;;;23.70;99.50;;;;;;3544654;40;20849;-63
2021/07/16 01:11:53;;;;;;;7.67;7.33;;;23.70;99.50;;;;;;3544695;40;20453;-63
2021/07/16 01:14:22;;;;;;;9.10;8.40;;;23.70;99.60;;;;;;3544276;40;20474;-63
2021/07/16 01:16:49;;;;;;;9.13;8.60;;;23.70;99.50;;;;;;3544769;40;20463;-62
2021/07/16 01:19:32;;;;;;;9.03;8.43;;;23.70;99.50;;;;;;3544749;40;20442;-63
2021/07/16 01:22:02;;;;;;;9.13;8.57;;;23.70;99.50;;;;;;3544685;40;20965;-63
2021/07/16 01:24:31;;;;;;;9.57;8.87;;;23.70;99.50;;;;;;3544642;40;20542;-63
2021/07/16 01:26:59;;;;;;;8.27;7.87;;;23.70;99.50;;;;;;3545056;40;20488;-63
2021/07/16 01:29:26;;;;;;;8.60;8.10;;;23.70;99.50;;;;;;3545441;40;20926;-63
2021/07/16 01:31:54;;;;;;;8.87;8.40;;;23.70;99.50;;;;;;3545415;40;20450;-63
2021/07/16 01:34:21;;;;;;;8.50;7.90;;;23.70;99.50;;;;;;3544555;40;20485;-63
2021/07/16 01:36:48;;;;;;;9.27;8.67;;;23.70;99.50;;;;;;3543676;40;20465;-63
2021/07/16 01:39:15;;;;;;;9.10;8.50;;;23.70;99.50;;;;;;3543978;40;20481;-63
2021/07/16 01:41:44;;;;;;;10.40;9.57;;;23.70;99.50;;;;;;3544089;40;20474;-63
2021/07/16 01:44:12;;;;;;;8.60;8.10;;;23.70;99.50;;;;;;3544202;40;20469;-63
2021/07/16 01:46:39;;;;;;;9.80;8.93;;;23.70;99.50;;;;;;3544561;40;20470;-63
2021/07/16 01:49:06;;;;;;;9.97;9.37;;;23.70;99.50;;;;;;3532051;40;20532;-63
2021/07/16 01:51:33;;;;;;;9.43;8.90;;;23.70;99.50;;;;;;3545017;40;20442;-62
2021/07/16 01:54:01;;;;;;;9.73;8.90;;;23.70;99.50;;;;;;3544961;40;20462;-63
2021/07/16 01:56:28;;;;;;;9.47;8.77;;;23.70;99.50;;;;;;3533576;40;20890;-63
2021/07/16 01:58:57;;;;;;;9.43;8.83;;;23.70;99.50;;;;;;3544046;40;21317;-63
2021/07/16 02:01:25;;;;;;;10.60;9.60;;;23.70;99.50;;;;;;3544931;40;20455;-63
2021/07/16 02:03:53;;;;;;;9.23;8.83;;;23.70;99.50;;;;;;3535061;40;20534;-63
2021/07/16 02:06:20;;;;;;;10.07;9.53;;;23.60;99.50;;;;;;3544225;40;20456;-63
2021/07/16 02:08:47;;;;;;;10.40;9.73;;;23.70;99.80;;;;;;3543793;40;20457;-63
2021/07/16 02:11:15;;;;;;;9.90;9.40;;;23.60;99.50;;;;;;3544374;40;20738;-63
2021/07/16 02:13:43;;;;;;;11.27;10.37;;;23.60;99.50;;;;;;3544223;40;20467;-63
2021/07/16 02:16:11;;;;;;;9.57;9.10;;;23.60;99.50;;;;;;3551565;40;20474;-63
2021/07/16 02:18:38;;;;;;;10.23;9.63;;;23.60;99.50;;;;;;3544046;40;20441;-63
2021/07/16 02:21:06;;;;;;;10.57;9.87;;;23.60;99.50;;;;;;3545560;40;20461;-63
2021/07/16 02:23:33;;;;;;;10.10;9.50;;;23.70;99.50;;;;;;3545498;40;20480;-62
2021/07/16 02:26:00;;;;;;;9.83;9.23;;;23.60;99.50;;;;;;3536528;40;20462;-63
2021/07/16 02:28:32;;;;;;;9.13;8.63;;;23.60;99.50;;;;;;3545957;40;20704;-63
2021/07/16 02:31:02;;;;;;;10.13;9.60;;;23.60;99.50;;;;;;3545751;40;20466;-62
2021/07/16 02:33:31;;;;;;;9.73;9.17;;;23.60;99.50;;;;;;3545078;40;20473;-63
2021/07/16 02:35:59;;;;;;;9.57;9.10;;;23.60;99.50;;;;;;3545961;40;20717;-63
2021/07/16 02:38:27;;;;;;;9.83;9.13;;;23.60;99.50;;;;;;3546577;40;20466;-63
2021/07/16 02:40:55;;;;;;;10.50;9.73;;;23.70;99.60;;;;;;3545817;40;20469;-63
2021/07/16 02:43:23;;;;;;;10.00;9.37;;;23.60;99.50;;;;;;3545532;40;20473;-63
2021/07/16 02:45:51;;;;;;;10.30;9.60;;;23.60;99.50;;;;;;3545471;40;20477;-62
2021/07/16 02:48:18;;;;;;;9.30;8.70;;;23.60;99.50;;;;;;3545527;40;20454;-63
2021/07/16 02:50:48;;;;;;;9.17;8.67;;;23.60;99.50;;;;;;3535248;40;20471;-63
2021/07/16 02:53:20;;;;;;;9.30;8.80;;;23.60;99.50;;;;;;3546299;40;20472;-63
2021/07/16 02:55:48;;;;;;;8.87;8.47;;;23.60;99.50;;;;;;3551733;40;20833;-62
2021/07/16 02:58:16;;;;;;;9.80;9.17;;;23.60;99.50;;;;;;3545265;40;20446;-63
2021/07/16 03:00:43;;;;;;;9.23;8.73;;;23.60;99.50;;;;;;3545313;40;20478;-62
2021/07/16 03:03:11;;;;;;;9.67;9.07;;;23.60;99.50;;;;;;3534785;40;20532;-62
2021/07/16 03:05:39;;;;;;;10.17;9.57;;;23.60;99.50;;;;;;3542682;40;20446;-62
2021/07/16 03:08:09;;;;;;;9.73;9.13;;;23.60;99.70;;;;;;3544869;40;20473;-63
2021/07/16 03:10:39;;;;;;;9.57;9.07;;;23.60;99.50;;;;;;3545430;40;20462;-63
2021/07/16 03:13:09;;;;;;;9.27;8.70;;;23.60;99.50;;;;;;3545369;40;20543;-63
2021/07/16 03:15:37;;;;;;;9.53;9.03;;;23.60;99.50;;;;;;3550591;40;20497;-63
2021/07/16 03:18:05;;;;;;;8.77;8.23;;;23.60;99.50;;;;;;3541201;40;20454;-63
2021/07/16 03:20:34;;;;;;;9.23;8.83;;;23.60;99.50;;;;;;3545812;40;20446;-63
2021/07/16 03:23:02;;;;;;;10.23;9.60;;;23.60;99.50;;;;;;3545003;40;20745;-62
2021/07/16 03:25:30;;;;;;;10.67;10.07;;;23.60;99.50;;;;;;3544683;40;20470;-62
2021/07/16 03:27:58;;;;;;;9.80;9.10;;;23.60;99.50;;;;;;3544884;40;20457;-63
2021/07/16 03:30:27;;;;;;;10.10;9.60;;;23.60;99.50;;;;;;3545690;40;20466;-63
2021/07/16 03:32:55;;;;;;;10.63;9.93;;;23.60;99.50;;;;;;3545465;40;20462;-63
2021/07/16 03:35:23;;;;;;;11.20;10.57;;;23.60;99.50;;;;;;3544587;40;20545;-63
2021/07/16 03:37:52;;;;;;;10.87;10.30;;;23.60;99.50;;;;;;3544887;40;20477;-62
2021/07/16 03:40:22;;;;;;;10.17;9.40;;;23.60;99.50;;;;;;3545541;40;20560;-62
2021/07/16 03:42:51;;;;;;;10.30;9.80;;;23.60;99.50;;;;;;3544468;40;20481;-63
2021/07/16 03:45:19;;;;;;;10.00;9.40;;;23.60;99.60;;;;;;3544453;40;20484;-62
2021/07/16 03:47:48;;;;;;;11.80;11.20;;;23.60;99.50;;;;;;3543763;40;20473;-63
2021/07/16 03:50:17;;;;;;;12.00;11.10;;;23.60;99.60;;;;;;3544758;40;20514;-62
2021/07/16 03:52:44;;;;;;;11.60;11.00;;;23.60;99.60;;;;;;3543378;40;20468;-62
2021/07/16 03:55:13;;;;;;;11.40;10.70;;;23.60;99.50;;;;;;3544235;40;20446;-62
2021/07/16 03:57:42;;;;;;;11.50;10.90;;;23.60;99.50;;;;;;3544345;40;20938;-63
2021/07/16 04:00:14;;;;;;;12.07;11.37;;;23.60;99.60;;;;;;3544384;40;20504;-62
2021/07/16 04:02:43;;;;;;;11.80;11.10;;;23.60;99.50;;;;;;3544239;40;20915;-63
2021/07/16 04:05:11;;;;;;;11.20;10.53;;;23.60;99.50;;;;;;3543854;40;20466;-63
2021/07/16 04:07:45;;;;;;;11.23;10.63;;;23.60;99.60;;;;;;3533880;40;20481;-63
2021/07/16 04:10:13;;;;;;;11.93;11.30;;;23.60;99.60;;;;;;3540341;40;20458;-62
2021/07/16 04:12:41;;;;;;;11.63;11.03;;;23.60;99.60;;;;;;3543442;40;21107;-63
2021/07/16 04:15:10;;;;;;;11.77;11.00;;;23.60;99.60;;;;;;3549364;40;20748;-62
2021/07/16 04:17:38;;;;;;;12.10;11.50;;;23.60;99.60;;;;;;3536738;40;20478;-63
2021/07/16 04:20:06;;;;;;;12.30;11.70;;;23.60;99.60;;;;;;3533407;40;20488;-63
2021/07/16 04:22:33;;;;;;;11.77;11.07;;;23.60;99.60;;;;;;3540546;40;20461;-62
2021/07/16 04:25:00;;;;;;;11.10;10.40;;;23.60;99.60;;;;;;3539110;40;20477;-63
2021/07/16 04:27:28;;;;;;;12.37;11.67;;;23.60;99.60;;;;;;3543273;40;20465;-62
2021/07/16 04:29:55;;;;;;;11.77;11.17;;;23.60;99.60;;;;;;3541501;40;20484;-63
2021/07/16 04:32:24;;;;;;;12.00;11.40;;;23.60;99.60;;;;;;3541243;40;20484;-62
2021/07/16 04:34:51;;;;;;;12.77;12.07;;;23.60;99.60;;;;;;3541756;40;20832;-62
2021/07/16 04:37:18;;;;;;;11.83;11.03;;;23.60;99.60;;;;;;3542260;40;20517;-63
2021/07/16 04:39:45;;;;;;;11.90;11.00;;;23.60;99.60;;;;;;3541337;40;20539;-63
2021/07/16 04:42:13;;;;;;;12.00;11.40;;;23.60;99.60;;;;;;3539838;40;20868;-63
2021/07/16 04:44:40;;;;;;;13.03;12.23;;;23.60;99.60;;;;;;3539686;40;21112;-63
2021/07/16 04:47:07;;;;;;;12.10;11.20;;;23.60;99.60;;;;;;3538883;40;20474;-62
2021/07/16 04:49:36;;;;;;;12.10;11.50;;;23.60;99.60;;;;;;3540245;40;20462;-62
2021/07/16 04:52:04;;;;;;;12.97;12.17;;;23.60;99.50;;;;;;3538681;40;20476;-62
2021/07/16 04:54:31;;;;;;;12.63;11.83;;;23.60;99.60;;;;;;3535240;40;20569;-63
2021/07/16 04:56:58;;;;;;;11.00;10.40;;;23.60;99.60;;;;;;3536989;40;20442;-62
2021/07/16 04:59:26;;;;;;;11.93;11.13;;;23.60;99.60;;;;;;3538603;40;20469;-63
2021/07/16 05:01:53;;;;;;;11.77;11.17;;;23.60;99.60;;;;;;3538723;40;20458;-63
2021/07/16 05:04:21;;;;;;;12.10;11.43;;;23.60;99.60;;;;;;3538155;40;20473;-63
2021/07/16 05:06:52;;;;;;;12.73;11.80;;;23.60;99.60;;;;;;3546615;40;20467;-63
2021/07/16 05:09:21;;;;;;;11.50;10.90;;;23.60;99.60;;;;;;3540072;40;20478;-63
2021/07/16 05:11:48;;;;;;;11.57;10.97;;;23.60;99.60;;;;;;3538908;40;20458;-62
2021/07/16 05:14:15;;;;;;;10.97;10.47;;;23.60;99.70;;;;;;3537453;40;20485;-63
2021/07/16 05:16:43;;;;;;;11.80;11.20;;;23.60;99.70;;;;;;3540050;40;20461;-63
2021/07/16 05:19:10;;;;;;;11.17;10.53;;;23.60;99.60;;;;;;3537908;40;20465;-63
2021/07/16 05:21:38;;;;;;;11.00;10.40;;;23.60;99.60;;;;;;3537886;40;20462;-63
2021/07/16 05:24:06;;;;;;;11.07;10.53;;;23.60;99.60;;;;;;3535960;40;20857;-62
2021/07/16 05:26:34;;;;;;;10.83;10.23;;;23.60;99.60;;;;;;3537269;40;20481;-62
2021/07/16 05:29:01;;;;;;;11.03;10.33;;;23.60;99.60;;;;;;3537232;40;20492;-63
2021/07/16 05:31:28;;;;;;;10.80;10.20;;;23.60;99.60;;;;;;3536332;40;20638;-62
2021/07/16 05:33:55;;;;;;;11.70;11.07;;;23.60;99.60;;;;;;3536401;40;20461;-63
2021/07/16 05:36:22;;;;;;;11.07;10.57;;;23.60;99.60;;;;;;3536435;40;20800;-62
2021/07/16 05:38:50;;;;;;;11.43;10.63;;;23.60;99.60;;;;;;3536106;40;20473;-63
2021/07/16 05:41:18;;;;;;;11.73;10.90;;;23.60;99.60;;;;;;3537252;40;20454;-63
2021/07/16 05:43:45;;;;;;;11.80;11.00;;;23.60;99.60;;;;;;3543008;40;20463;-63
2021/07/16 05:46:13;;;;;;;11.10;10.50;;;23.60;99.60;;;;;;3535570;40;20570;-63
2021/07/16 05:48:45;;;;;;;11.57;11.07;;;23.60;99.60;;;;;;3535451;40;20457;-63
2021/07/16 05:51:13;;;;;;;12.00;11.20;;;23.60;99.60;;;;;;3535922;40;20453;-62
2021/07/16 05:53:40;;;;;;;11.57;10.80;;;23.60;99.70;;;;;;3533734;40;20738;-62
2021/07/16 05:56:08;;;;;;;11.50;10.80;;;23.60;99.70;;;;;;3534706;40;20473;-63
2021/07/16 05:58:36;;;;;;;11.00;10.30;;;23.60;99.70;;;;;;3534123;40;20506;-63
2021/07/16 06:01:04;;;;;;;10.63;10.07;;;23.60;99.70;;;;;;3533278;40;20466;-62
2021/07/16 06:03:33;;;;;;;10.90;10.27;;;23.60;99.60;;;;;;3530300;40;20462;-63
2021/07/16 06:06:01;;;;;;;10.90;10.03;;;23.60;99.60;;;;;;3527557;40;20569;-62
2021/07/16 06:08:29;;;;;;;11.43;10.80;;;23.60;99.60;;;;;;3530999;40;21074;-63
2021/07/16 06:10:57;;;;;;;11.67;10.97;;;23.60;99.60;;;;;;3533324;40;20454;-63
2021/07/16 06:13:25;;;;;;;11.60;10.90;;;23.60;99.60;;;;;;3532920;40;20489;-62
2021/07/16 06:16:00;;;;;;;11.70;11.00;;;23.60;99.60;;;;;;3531076;40;20528;-62
2021/07/16 06:18:27;;;;;;;11.63;10.83;;;23.60;99.60;;;;;;3523125;40;20466;-62
2021/07/16 06:20:55;;;;;;;11.23;10.50;;;23.60;99.90;;;;;;3532149;40;20472;-62
2021/07/16 06:23:24;;;;;;;11.00;10.30;;;23.50;99.90;;;;;;3530760;40;21403;-62
2021/07/16 06:25:51;;;;;;;10.50;9.80;;;23.50;99.90;;;;;;3531674;40;20505;-62
2021/07/16 06:28:20;;;;;;;10.60;10.10;;;23.50;99.90;;;;;;3530797;40;20462;-61
2021/07/16 06:30:48;;;;;;;10.50;10.00;;;23.40;99.90;;;;;;3532229;40;20768;-60
2021/07/16 06:33:18;;;;;;;10.60;10.00;;;23.40;99.90;;;;;;3530816;40;20699;-61
2021/07/16 06:35:46;;;;;;;11.23;10.63;;;23.40;99.90;;;;;;3522964;40;20566;-61
2021/07/16 06:38:14;;;;;;;11.13;10.37;;;23.40;99.90;;;;;;3530364;40;20489;-61
2021/07/16 06:40:42;;;;;;;11.50;10.90;;;23.30;99.90;;;;;;3529859;40;20492;-61
2021/07/16 06:43:11;;;;;;;11.43;10.93;;;23.30;99.90;;;;;;3530925;40;21196;-61
2021/07/16 06:45:38;;;;;;;11.47;10.83;;;23.30;99.90;;;;;;3531800;40;20485;-61
2021/07/16 06:48:07;;;;;;;11.30;10.70;;;23.30;99.90;;;;;;3531671;40;20505;-61
2021/07/16 06:50:35;;;;;;;11.23;10.53;;;23.30;99.90;;;;;;3529386;40;20521;-61
2021/07/16 06:53:03;;;;;;;10.90;10.00;;;23.20;99.90;;;;;;3527267;40;20509;-61
2021/07/16 06:55:31;;;;;;;11.30;10.70;;;23.20;99.90;;;;;;3525686;40;20497;-62
2021/07/16 06:57:58;;;;;;;11.63;10.93;;;23.20;99.90;;;;;;3526023;40;20565;-61
2021/07/16 07:00:25;;;;;;;11.00;10.50;;;23.20;99.90;;;;;;3524838;40;20795;-61
2021/07/16 07:02:53;;;;;;;10.43;9.90;;;23.20;99.90;;;;;;3516384;40;20924;-61
2021/07/16 07:05:24;;;;;;;11.00;10.40;;;23.20;99.90;;;;;;3528426;40;20479;-61
2021/07/16 07:07:53;;;;;;;10.20;9.70;;;23.20;99.90;;;;;;3527092;40;20461;-62
2021/07/16 07:10:20;;;;;;;10.67;10.07;;;23.20;99.90;;;;;;3520574;40;20748;-61
2021/07/16 07:12:47;;;;;;;11.03;10.40;;;23.20;99.90;;;;;;3525172;40;20563;-61
2021/07/16 07:15:15;;;;;;;10.67;10.07;;;23.20;99.90;;;;;;3532345;40;20775;-61
2021/07/16 07:17:43;;;;;;;10.57;9.97;;;23.20;99.90;;;;;;3529568;40;20667;-61
2021/07/16 07:20:11;;;;;;;10.37;9.87;;;23.20;99.90;;;;;;3529843;40;20477;-61
2021/07/16 07:22:39;;;;;;;11.20;10.60;;;23.20;99.90;;;;;;3526396;40;20461;-61
2021/07/16 07:25:09;;;;;;;10.47;9.97;;;23.20;99.90;;;;;;3526148;40;20485;-60
2021/07/16 07:27:36;;;;;;;10.40;9.90;;;23.20;99.90;;;;;;3529777;40;20465;-61
2021/07/16 07:30:05;;;;;;;10.30;9.80;;;23.20;99.90;;;;;;3516128;40;20462;-61
2021/07/16 07:32:32;;;;;;;10.67;10.13;;;23.20;99.90;;;;;;3531802;40;20465;-62
2021/07/16 07:35:00;;;;;;;10.83;10.30;;;23.20;99.90;;;;;;3525040;40;20462;-61
2021/07/16 07:37:27;;;;;;;10.53;10.03;;;23.30;99.90;;;;;;3526302;40;20666;-62
2021/07/16 07:39:54;;;;;;;10.43;9.83;;;23.30;99.90;;;;;;3528628;40;20564;-61
2021/07/16 07:42:25;;;;;;;9.97;9.57;;;23.30;99.90;;;;;;3518633;40;20960;-60
2021/07/16 07:44:54;;;;;;;9.30;8.90;;;23.30;99.90;;;;;;3530065;40;20772;-61
2021/07/16 07:47:21;;;;;;;10.30;9.80;;;23.30;99.90;;;;;;3528603;40;20461;-59
2021/07/16 07:49:50;;;;;;;11.20;10.57;;;23.30;99.90;;;;;;3527658;40;20536;-61
2021/07/16 07:52:18;;;;;;;10.83;10.07;;;23.40;99.90;;;;;;3527789;40;21116;-60
2021/07/16 07:54:46;;;;;;;10.60;10.10;;;23.40;99.90;;;;;;3524471;40;20743;-60
2021/07/16 07:57:14;;;;;;;10.33;9.83;;;23.40;99.90;;;;;;3525337;40;20492;-60
2021/07/16 07:59:43;;;;;;;10.77;10.27;;;23.40;99.90;;;;;;3528372;40;20817;-60
2021/07/16 08:02:10;;;;;;;12.00;11.40;;;23.50;99.90;;;;;;3525981;40;20665;-61
2021/07/16 08:04:38;;;;;;;10.13;9.63;;;23.50;99.90;;;;;;3525826;40;20473;-61
2021/07/16 08:07:09;;;;;;;10.63;10.13;;;23.50;99.90;;;;;;3528891;40;20466;-61
2021/07/16 08:09:38;;;;;;;10.10;9.60;;;23.50;99.90;;;;;;3529281;40;20522;-60
2021/07/16 08:12:08;;;;;;;11.37;10.60;;;23.50;99.90;;;;;;3529486;40;20469;-61
2021/07/16 08:14:35;;;;;;;10.80;10.30;;;23.50;99.90;;;;;;3527857;40;20481;-60
2021/07/16 08:17:04;;;;;;;10.77;10.27;;;23.50;99.90;;;;;;3525647;40;20473;-60
2021/07/16 08:19:32;;;;;;;11.50;10.90;;;23.60;99.90;;;;;;3528075;40;21380;-61
2021/07/16 08:21:59;;;;;;;11.20;10.60;;;23.60;99.90;;;;;;3531019;40;21125;-61
2021/07/16 08:24:26;;;;;;;10.90;10.30;;;23.60;99.90;;;;;;3528962;40;20493;-61
2021/07/16 08:26:54;;;;;;;11.27;10.70;;;23.60;99.90;;;;;;3529224;40;20558;-61
2021/07/16 08:29:21;;;;;;;10.87;10.37;;;23.60;99.90;;;;;;3527478;40;21017;-60
2021/07/16 08:31:48;;;;;;;10.10;9.60;;;23.60;99.90;;;;;;3528617;40;20880;-61
2021/07/16 08:34:17;;;;;;;10.80;10.30;;;23.60;99.90;;;;;;3529950;40;20698;-61
2021/07/16 08:36:45;;;;;;;11.50;10.80;;;23.60;99.90;;;;;;3522580;40;20741;-60
2021/07/16 08:39:13;;;;;;;10.37;9.87;;;23.60;99.90;;;;;;3527711;40;20486;-60
2021/07/16 08:41:40;;;;;;;10.60;10.10;;;23.60;99.90;;;;;;3530028;40;20713;-61
2021/07/16 08:44:07;;;;;;;11.17;10.63;;;23.60;99.90;;;;;;3528519;40;20883;-60
2021/07/16 08:46:38;;;;;;;11.10;10.40;;;23.60;99.90;;;;;;3525744;40;20664;-60
2021/07/16 08:49:05;;;;;;;11.07;10.57;;;23.60;99.90;;;;;;3528284;40;20469;-61
2021/07/16 08:51:37;;;;;;;10.20;9.80;;;23.60;99.90;;;;;;3529162;40;20805;-61
2021/07/16 08:54:07;;;;;;;11.17;10.67;;;23.60;99.90;;;;;;3528711;40;20466;-61
2021/07/16 08:56:36;;;;;;;10.30;9.80;;;23.60;99.90;;;;;;3525897;40;20857;-61
2021/07/16 08:59:05;;;;;;;9.43;9.00;;;23.60;99.90;;;;;;3530006;40;20723;-61
2021/07/16 09:01:33;;;;;;;9.50;9.10;;;23.70;99.90;;;;;;3529054;40;20478;-60
2021/07/16 09:04:02;;;;;;;10.10;9.60;;;23.60;99.90;;;;;;3528083;40;20480;-58
2021/07/16 09:06:47;;;;;;;9.33;8.93;;;23.70;99.90;;;;;;3524174;40;20485;-59
2021/07/16 09:09:16;;;;;;;8.10;7.80;;;23.70;99.90;;;;;;3524836;40;20481;-61
2021/07/16 09:11:46;;;;;;;8.07;7.77;;;23.60;99.70;;;;;;3523323;40;20465;-62
2021/07/16 09:14:19;;;;;;;9.53;9.10;;;23.60;99.90;;;;;;3525557;40;20470;-62
2021/07/16 09:16:55;;;;;;;9.27;8.87;;;23.60;99.90;;;;;;3524560;40;20473;-62
2021/07/16 09:19:31;;;;;;;9.00;8.60;;;23.60;99.90;;;;;;3526228;40;20469;-61
2021/07/16 09:22:10;;;;;;;9.80;9.30;;;23.60;99.90;;;;;;3528614;40;20942;-62
2021/07/16 09:24:38;;;;;;;10.10;9.40;;;23.60;99.90;;;;;;3527722;40;20485;-62
2021/07/16 09:27:29;;;;;;;10.07;9.57;;;23.70;99.90;;;;;;3523482;40;20497;-62
2021/07/16 09:30:14;;;;;;;10.53;10.03;;;23.70;99.90;;;;;;3523809;40;20604;-61
2021/07/16 09:32:42;;;;;;;10.33;9.83;;;23.70;99.90;;;;;;3523888;40;20473;-61
2021/07/16 09:35:11;;;;;;;10.67;10.07;;;23.70;99.90;;;;;;3521943;40;20710;-62
2021/07/16 09:37:56;;;;;;;10.70;10.10;;;23.70;99.90;;;;;;3518252;40;20473;-61
2021/07/16 09:40:28;;;;;;;10.23;9.63;;;23.80;99.90;;;;;;3521907;40;20489;-62
2021/07/16 09:43:13;;;;;;;10.20;9.77;;;23.70;99.90;;;;;;3521174;40;20490;-62
2021/07/16 09:45:42;;;;;;;10.87;10.30;;;23.70;99.90;;;;;;3520233;40;20493;-62
2021/07/16 09:48:25;;;;;;;10.90;10.40;;;23.80;99.90;;;;;;3523108;40;20897;-62
2021/07/16 09:51:14;;;;;;;10.50;9.87;;;23.80;99.90;;;;;;3518810;40;20455;-62
2021/07/16 09:53:45;;;;;;;10.80;10.00;;;23.80;99.90;;;;;;3516781;40;20471;-62
2021/07/16 09:56:16;;;;;;;10.63;10.13;;;23.80;99.90;;;;;;3519577;40;20447;-62
2021/07/16 09:58:44;;;;;;;10.90;10.30;;;23.80;99.90;;;;;;3522306;40;20712;-61
2021/07/16 10:01:12;;;;;;;9.97;9.57;;;23.80;99.90;;;;;;3527235;40;20608;-61
2021/07/16 10:03:40;;;;;;;12.03;11.30;;;23.80;99.90;;;;;;3526840;40;20504;-62
2021/07/16 10:06:11;;;;;;;10.50;10.00;;;23.80;99.90;;;;;;3527756;40;20488;-62
2021/07/16 10:08:41;;;;;;;10.80;10.20;;;23.80;99.90;;;;;;3528158;40;20665;-62
2021/07/16 10:11:11;;;;;;;10.60;10.00;;;23.80;99.90;;;;;;3527806;40;20476;-62
2021/07/16 10:13:40;;;;;;;10.83;10.23;;;23.80;99.90;;;;;;3522148;40;20595;-61
2021/07/16 10:16:07;;;;;;;10.30;9.80;;;23.80;99.90;;;;;;3515203;40;20664;-61
2021/07/16 10:18:35;;;;;;;11.20;10.70;;;23.80;99.90;;;;;;3527182;40;20477;-62
2021/07/16 10:21:03;;;;;;;11.33;10.63;;;23.80;99.90;;;;;;3527847;40;20494;-62
2021/07/16 10:23:30;;;;;;;12.27;11.03;;;23.80;99.90;;;;;;3528027;40;20691;-62
2021/07/16 10:25:59;;;;;;;11.43;10.73;;;23.80;99.90;;;;;;3522738;40;20691;-62
2021/07/16 10:28:33;;;;;;;11.97;11.37;;;23.80;99.90;;;;;;3522836;40;20576;-61
2021/07/16 10:31:01;;;;;;;12.10;11.50;;;23.80;99.90;;;;;;3521763;40;20694;-62
2021/07/16 10:33:34;;;;;;;11.20;10.70;;;23.80;99.90;;;;;;3516070;40;20484;-62
2021/07/16 10:36:02;;;;;;;11.93;11.33;;;23.80;99.90;;;;;;3523489;40;20562;-62
2021/07/16 10:38:32;;;;;;;11.70;11.00;;;23.80;99.90;;;;;;3528119;40;20486;-61
2021/07/16 10:41:01;;;;;;;11.47;10.87;;;23.80;99.90;;;;;;3536961;40;20750;-62
2021/07/16 10:43:43;;;;;;;11.83;11.23;;;23.80;99.90;;;;;;3536546;40;20469;-62
2021/07/16 10:46:32;;;;;;;12.13;11.43;;;23.80;99.90;;;;;;3529869;40;20521;-61
2021/07/16 10:49:01;;;;;;;11.97;11.37;;;23.80;99.90;;;;;;3531343;40;20454;-63
2021/07/16 10:51:32;;;;;;;9.10;8.80;;;23.80;99.90;;;;;;3529714;40;20666;-62
2021/07/16 10:54:02;;;;;;;9.23;8.83;;;23.80;99.90;;;;;;3519689;40;20467;-62
2021/07/16 10:56:43;;;;;;;9.00;8.43;;;23.80;99.40;;;;;;3525571;40;20490;-62
2021/07/16 10:59:43;;;;;;;9.47;8.77;;;23.80;99.40;;;;;;3531859;40;20564;-63
2021/07/16 11:02:41;;;;;;;8.17;7.73;;;23.80;99.40;;;;;;3527457;40;20506;-63
2021/07/16 11:05:44;;;;;;;9.03;8.60;;;23.80;99.40;;;;;;3529742;40;20553;-63
2021/07/16 11:08:43;;;;;;;9.30;8.90;;;23.80;99.50;;;;;;3516794;40;20501;-63
2021/07/16 11:11:12;;;;;;;8.70;8.40;;;23.80;99.50;;;;;;3514578;40;20490;-61
2021/07/16 11:13:44;;;;;;;8.40;8.10;;;23.80;99.50;;;;;;3530700;40;20490;-63
2021/07/16 11:16:48;;;;;;;7.80;7.60;;;23.80;99.30;;;;;;3512284;40;20490;-63
2021/07/16 11:19:24;;;;;;;8.40;8.10;;;23.80;99.10;;;;;;3526276;40;20572;-62
2021/07/16 11:22:07;;;;;;;7.57;7.27;;;23.80;98.80;;;;;;3527699;40;20482;-63
2021/07/16 11:24:40;;;;;;;8.30;7.90;;;23.70;98.70;;;;;;3529079;40;20449;-63
2021/07/16 11:27:15;;;;;;;8.20;7.50;;;23.70;98.50;;;;;;3527330;40;20571;-63
2021/07/16 11:29:44;;;;;;;8.17;7.87;;;23.70;98.50;;;;;;3529737;40;20473;-63
2021/07/16 11:32:16;;;;;;;7.97;7.57;;;23.70;98.40;;;;;;3529511;40;20469;-63
2021/07/16 11:34:53;;;;;;;8.20;7.80;;;23.70;98.50;;;;;;3534378;40;20495;-63
2021/07/16 11:37:28;;;;;;;8.27;7.97;;;23.70;98.20;;;;;;3532394;40;20539;-63
2021/07/16 11:40:03;;;;;;;7.70;7.40;;;23.70;98.30;;;;;;3534268;40;20485;-63
2021/07/16 11:42:43;;;;;;;8.23;7.60;;;23.70;98.30;;;;;;3528589;40;20556;-63
2021/07/16 11:45:19;;;;;;;7.30;7.10;;;23.80;98.40;;;;;;3528835;40;20749;-63
2021/07/16 11:47:50;;;;;;;8.30;8.00;;;23.80;98.20;;;;;;3531690;40;20517;-63
2021/07/16 11:50:22;;;;;;;8.23;7.93;;;23.80;98.10;;;;;;3532539;40;20978;-63
2021/07/16 11:52:53;;;;;;;7.93;7.63;;;23.80;98.00;;;;;;3533636;40;20497;-61
2021/07/16 11:55:24;;;;;;;8.70;8.40;;;23.80;97.60;;;;;;3532147;40;20461;-63
2021/07/16 11:57:54;;;;;;;8.10;7.80;;;23.80;97.80;;;;;;3532193;40;20476;-63
2021/07/16 12:00:26;;;;;;;8.67;8.23;;;23.80;97.80;;;;;;3530956;40;20474;-63
2021/07/16 12:03:06;;;;;;;8.87;8.37;;;23.80;97.90;;;;;;3532996;40;20558;-63
2021/07/16 12:05:34;;;;;;;8.50;8.20;;;23.90;98.00;;;;;;3529590;40;20482;-63
2021/07/16 12:08:01;;;;;;;8.80;8.40;;;23.90;98.10;;;;;;3526356;40;20513;-63
2021/07/16 12:10:29;;;;;;;8.67;8.37;;;23.90;98.20;;;;;;3533383;40;20462;-63
2021/07/16 12:13:01;;;;;;;8.30;7.90;;;23.90;98.20;;;;;;3532306;40;20485;-63
2021/07/16 12:15:30;;;;;;;8.20;7.90;;;23.90;98.30;;;;;;3534481;40;20546;-63
2021/07/16 12:17:59;;;;;;;7.83;7.40;;;23.90;98.30;;;;;;3534832;40;20477;-63
2021/07/16 12:20:35;;;;;;;7.30;7.10;;;23.90;98.20;;;;;;3532409;40;20503;-63
2021/07/16 12:23:08;;;;;;;8.10;7.80;;;23.80;98.00;;;;;;3534743;40;20488;-63
2021/07/16 12:25:37;;;;;;;8.40;8.00;;;23.90;98.20;;;;;;3533038;40;20469;-63
2021/07/16 12:28:14;;;;;;;7.47;7.20;;;23.90;98.30;;;;;;3535345;40;20886;-62
2021/07/16 12:30:41;;;;;;;8.03;7.73;;;23.90;98.40;;;;;;3536003;40;20741;-62
2021/07/16 12:33:09;;;;;;;8.00;7.70;;;23.90;98.40;;;;;;3533772;40;20516;-62
2021/07/16 12:35:41;;;;;;;8.17;7.87;;;23.90;98.50;;;;;;3534328;40;20478;-63
2021/07/16 12:38:13;;;;;;;7.77;7.47;;;23.90;98.50;;;;;;3527097;40;21145;-63
2021/07/16 12:40:42;;;;;;;8.10;7.80;;;23.90;98.50;;;;;;3536540;40;20462;-63
2021/07/16 12:43:13;;;;;;;7.63;7.33;;;23.90;98.60;;;;;;3534667;40;20568;-61
2021/07/16 12:45:47;;;;;;;7.80;7.50;;;23.90;98.60;;;;;;3533391;40;20478;-63
2021/07/16 12:48:30;;;;;;;8.30;7.83;;;23.90;98.60;;;;;;3525855;40;20478;-63